createdAt,value
2023-04-03T00:01:28.780Z,7.30
2023-04-03T00:05:26.811Z,7.50
2023-04-03T00:09:24.853Z,6.80
2023-04-03T00:13:23.787Z,6.70
2023-04-03T00:17:21.796Z,7.00
2023-04-03T00:21:20.801Z,7.00
2023-04-03T00:25:19.712Z,6.40
2023-04-03T00:29:17.814Z,6.40
2023-04-03T00:33:15.758Z,7.40
2023-04-03T00:37:13.737Z,7.20
2023-04-03T00:41:11.863Z,7.50
2023-04-03T00:45:12.716Z,6.70
2023-04-03T00:49:10.715Z,6.20
2023-04-03T00:53:08.724Z,6.40
2023-04-03T00:57:11.732Z,6.70
2023-04-03T01:01:13.725Z,7.40
2023-04-03T01:05:11.696Z,7.00
2023-04-03T01:09:10.805Z,6.90
2023-04-03T01:13:08.693Z,7.20
2023-04-03T01:17:10.633Z,6.80
2023-04-03T01:21:10.754Z,7.50
2023-04-03T01:25:08.731Z,7.70
2023-04-03T01:29:08.661Z,7.30
2023-04-03T01:33:07.787Z,7.90
2023-04-03T01:37:05.701Z,7.30
2023-04-03T01:41:04.643Z,7.30
2023-04-03T01:45:02.655Z,7.20
2023-04-03T01:49:00.638Z,6.20
2023-04-03T01:52:58.611Z,7.10
2023-04-03T01:56:56.908Z,7.20
2023-04-03T02:00:55.760Z,6.40
2023-04-03T02:04:53.648Z,6.20
2023-04-03T02:08:51.586Z,6.60
2023-04-03T02:12:49.634Z,6.10
2023-04-03T02:16:47.728Z,5.50
2023-04-03T02:20:46.696Z,4.80
2023-04-03T02:24:46.602Z,5.00
2023-04-03T02:28:44.693Z,4.90
2023-04-03T02:32:42.699Z,5.40
2023-04-03T02:36:40.634Z,4.50
2023-04-03T02:40:38.762Z,5.10
2023-04-03T02:44:36.615Z,5.60
2023-04-03T02:48:34.703Z,6.20
2023-04-03T02:52:32.535Z,7.80
2023-04-03T02:56:30.558Z,7.30
2023-04-03T03:00:28.625Z,7.60
2023-04-03T03:04:26.565Z,6.90
2023-04-03T03:08:27.659Z,6.80
2023-04-03T03:12:30.193Z,7.40
2023-04-03T03:16:29.548Z,6.30
2023-04-03T03:20:28.489Z,6.40
2023-04-03T03:24:26.506Z,5.80
2023-04-03T03:28:24.508Z,5.20
2023-04-03T03:32:22.526Z,5.00
2023-04-03T03:36:20.551Z,4.40
2023-04-03T03:40:18.541Z,3.50
2023-04-03T03:44:16.444Z,3.80
2023-04-03T03:48:14.504Z,3.60
2023-04-03T03:52:12.480Z,3.00
2023-04-03T03:56:10.460Z,3.40
2023-04-03T04:00:10.503Z,2.60
2023-04-03T04:04:11.648Z,3.00
2023-04-03T04:08:09.418Z,3.10
2023-04-03T04:12:08.426Z,3.10
2023-04-03T04:16:06.401Z,2.90
2023-04-03T04:20:04.476Z,3.20
2023-04-03T04:24:04.371Z,2.70
2023-04-03T04:28:02.435Z,3.00
2023-04-03T04:32:00.358Z,3.00
2023-04-03T04:35:59.497Z,2.70
2023-04-03T04:39:57.440Z,2.90
2023-04-03T04:43:55.407Z,3.50
2023-04-03T04:47:53.441Z,3.40
2023-04-03T04:51:52.482Z,3.40
2023-04-03T04:55:53.327Z,3.40
2023-04-03T04:59:51.368Z,2.80
2023-04-03T05:03:49.339Z,2.70
2023-04-03T05:07:48.454Z,2.70
2023-04-03T05:11:46.325Z,3.30
2023-04-03T05:15:46.375Z,3.30
2023-04-03T05:19:44.330Z,3.00
2023-04-03T05:23:42.380Z,3.20
2023-04-03T05:27:40.308Z,3.80
2023-04-03T05:31:38.477Z,3.90
2023-04-03T05:35:36.583Z,2.50
2023-04-03T05:39:36.343Z,3.80
2023-04-03T05:43:34.265Z,2.90
2023-04-03T05:47:34.361Z,3.50
2023-04-03T05:51:35.296Z,4.30
2023-04-03T05:59:37.303Z,3.20
2023-04-03T06:03:02.219Z,2.70
2023-04-03T06:06:26.596Z,4.70
2023-04-03T06:09:52.325Z,3.90
2023-04-03T06:16:41.362Z,4.10
2023-04-03T06:20:06.630Z,2.80
2023-04-03T06:26:55.573Z,2.50
2023-04-03T06:30:19.517Z,3.20
2023-04-03T06:33:43.478Z,2.50
2023-04-03T06:37:07.856Z,2.80
2023-04-03T06:40:32.230Z,2.70
2023-04-03T06:43:57.568Z,3.60
2023-04-03T06:47:21.744Z,3.20
2023-04-03T06:50:45.581Z,3.00
2023-04-03T06:54:10.336Z,2.90
2023-04-03T06:57:34.538Z,3.70
2023-04-03T07:00:58.580Z,2.80
2023-04-03T07:04:22.699Z,2.70
2023-04-03T07:07:46.810Z,3.10
2023-04-03T07:11:12.649Z,3.00
2023-04-03T07:18:00.850Z,2.80
2023-04-03T07:21:25.081Z,3.40
2023-04-03T07:24:50.564Z,3.20
2023-04-03T07:28:15.395Z,4.20
2023-04-03T07:31:42.896Z,3.60
2023-04-03T07:35:07.484Z,3.60
2023-04-03T07:38:31.449Z,4.00
2023-04-03T07:41:56.523Z,3.70
2023-04-03T07:45:20.507Z,2.80
2023-04-03T07:48:44.433Z,3.10
2023-04-03T07:52:10.134Z,3.20
2023-04-03T07:58:59.303Z,3.00
2023-04-03T08:02:23.165Z,3.50
2023-04-03T08:05:49.841Z,3.30
2023-04-03T08:09:13.752Z,3.00
2023-04-03T08:12:37.958Z,3.50
2023-04-03T08:16:16.145Z,3.00
2023-04-03T08:19:41.641Z,3.10
2023-04-03T08:23:05.482Z,3.60
2023-04-03T08:26:29.631Z,3.10
2023-04-03T08:29:53.699Z,2.80
2023-04-03T08:33:18.077Z,3.20
2023-04-03T08:36:42.146Z,3.60
2023-04-03T08:40:12.097Z,3.80
2023-04-03T08:43:59.122Z,3.00
2023-04-03T08:48:01.729Z,2.70
2023-04-03T08:51:28.212Z,2.90
2023-04-03T08:55:02.809Z,2.70
2023-04-03T08:58:30.374Z,3.00
2023-04-03T09:01:55.590Z,3.00
2023-04-03T09:05:41.517Z,2.90
2023-04-03T09:09:47.279Z,3.30
2023-04-03T09:13:25.083Z,3.40
2023-04-03T09:16:59.012Z,3.60
2023-04-03T09:20:38.363Z,2.90
2023-04-03T09:24:06.718Z,2.80
2023-04-03T09:27:30.685Z,4.10
2023-04-03T09:30:55.107Z,3.50
2023-04-03T09:34:29.240Z,3.90
2023-04-03T09:37:58.106Z,3.50
2023-04-03T09:41:22.568Z,3.30
2023-04-03T09:45:02.692Z,3.10
2023-04-03T09:48:29.363Z,2.60
2023-04-03T09:51:54.843Z,3.10
2023-04-03T09:55:22.952Z,3.80
2023-04-03T09:58:52.647Z,3.50
2023-04-03T10:02:32.916Z,3.30
2023-04-03T10:05:58.878Z,3.10
2023-04-03T10:12:49.181Z,2.90
2023-04-03T10:16:19.675Z,2.90
2023-04-03T10:20:18.259Z,3.70
2023-04-03T10:23:47.775Z,3.80
2023-04-03T10:27:19.235Z,2.90
2023-04-03T10:30:49.269Z,3.10
2023-04-03T10:34:26.736Z,2.70
2023-04-03T10:38:02.519Z,3.90
2023-04-03T10:41:46.389Z,2.70
2023-04-03T10:45:21.443Z,2.90
2023-04-03T10:48:56.851Z,3.00
2023-04-03T10:52:30.030Z,2.90
2023-04-03T10:55:59.661Z,3.10
2023-04-03T10:59:48.634Z,2.80
2023-04-03T11:03:31.350Z,3.80
2023-04-03T11:07:19.000Z,3.30
2023-04-03T11:10:45.115Z,2.90
2023-04-03T11:14:17.334Z,2.60
2023-04-03T11:17:52.291Z,2.70
2023-04-03T11:21:35.806Z,3.40
2023-04-03T11:25:12.558Z,3.10
2023-04-03T11:28:38.636Z,2.80
2023-04-03T11:35:29.126Z,3.30
2023-04-03T11:38:57.798Z,3.20
2023-04-03T11:42:22.033Z,2.90
2023-04-03T11:45:56.880Z,2.50
2023-04-03T11:49:57.829Z,2.90
2023-04-03T11:53:42.715Z,2.80
2023-04-03T11:57:47.276Z,3.20
2023-04-03T12:01:13.750Z,2.60
2023-04-03T12:04:38.478Z,2.90
2023-04-03T12:08:38.343Z,3.10
2023-04-03T12:12:23.517Z,2.60
2023-04-03T12:15:58.228Z,2.90
2023-04-03T12:23:30.312Z,3.00
2023-04-03T12:27:20.414Z,3.00
2023-04-03T12:30:45.799Z,3.40
2023-04-03T12:34:43.635Z,2.50
2023-04-03T12:38:47.889Z,2.40
2023-04-03T12:42:27.987Z,3.30
2023-04-03T12:46:01.068Z,2.80
2023-04-03T12:49:31.236Z,2.70
2023-04-03T12:53:08.532Z,2.70
2023-04-03T12:56:35.267Z,2.30
2023-04-03T12:59:59.231Z,2.60
2023-04-03T13:03:28.984Z,2.60
2023-04-03T13:06:53.572Z,2.90
2023-04-03T13:10:20.974Z,3.00
2023-04-03T13:14:09.385Z,2.50
2023-04-03T13:17:33.710Z,2.10
2023-04-03T13:21:21.912Z,3.00
2023-04-03T13:24:48.585Z,2.80
2023-04-03T13:28:16.738Z,2.90
2023-04-03T13:32:00.684Z,2.50
2023-04-03T13:35:58.675Z,2.90
2023-04-03T13:39:56.661Z,2.50
2023-04-03T13:44:03.269Z,2.70
2023-04-03T13:48:16.017Z,2.80
2023-04-03T13:52:46.712Z,2.70
2023-04-03T13:56:49.616Z,2.80
2023-04-03T14:01:24.714Z,2.50
2023-04-03T14:05:25.709Z,3.10
2023-04-03T14:09:23.578Z,2.50
2023-04-03T14:13:21.588Z,2.70
2023-04-03T14:17:30.668Z,3.30
2023-04-03T14:21:30.620Z,2.80
2023-04-03T14:25:28.612Z,3.10
2023-04-03T14:29:27.569Z,2.90
2023-04-03T14:33:29.675Z,3.20
2023-04-03T14:37:31.562Z,3.20
2023-04-03T14:41:32.561Z,2.10
2023-04-03T14:45:31.650Z,2.90
2023-04-03T14:49:37.536Z,3.20
2023-04-03T14:53:39.113Z,3.00
2023-04-03T14:57:42.699Z,3.00
2023-04-03T15:01:42.685Z,3.20
2023-04-03T15:05:40.511Z,3.20
2023-04-03T15:09:40.584Z,2.90
2023-04-03T15:13:39.547Z,3.50
2023-04-03T15:17:38.646Z,3.30
2023-04-03T15:21:36.541Z,3.30
2023-04-03T15:25:34.481Z,3.20
2023-04-03T15:29:32.508Z,3.30
2023-04-03T15:33:31.452Z,3.30
2023-04-03T15:37:29.792Z,3.80
2023-04-03T15:41:27.442Z,3.00
2023-04-03T15:45:25.555Z,3.30
2023-04-03T15:49:23.537Z,4.00
2023-04-03T15:53:21.519Z,4.20
2023-04-03T15:57:19.503Z,4.30
2023-04-03T16:01:17.476Z,3.60
2023-04-03T16:05:15.466Z,4.10
2023-04-03T16:09:13.544Z,4.00
2023-04-03T16:13:11.507Z,4.00
2023-04-03T16:17:09.621Z,4.10
2023-04-03T16:21:07.380Z,4.50
2023-04-03T16:25:05.466Z,3.70
2023-04-03T16:29:03.525Z,4.10
2023-04-03T16:33:01.457Z,4.90
2023-04-03T16:36:59.534Z,4.20
2023-04-03T16:40:57.380Z,4.10
2023-04-03T16:44:55.515Z,4.60
2023-04-03T16:48:53.365Z,4.60
2023-04-03T16:52:51.339Z,5.50
2023-04-03T16:56:49.417Z,3.70
2023-04-03T17:00:47.328Z,3.80
2023-04-03T17:04:45.382Z,4.10
2023-04-03T17:08:43.465Z,3.90
2023-04-03T17:12:54.400Z,4.10
2023-04-03T17:16:53.374Z,4.20
2023-04-03T17:20:51.387Z,3.90
2023-04-03T17:24:49.366Z,4.00
2023-04-03T17:28:48.379Z,4.00
2023-04-03T17:32:47.495Z,4.30
2023-04-03T17:36:46.379Z,4.80
2023-04-03T17:40:45.122Z,4.50
2023-04-03T17:44:43.344Z,4.80
2023-04-03T17:48:41.292Z,4.70
2023-04-03T17:52:40.341Z,4.00
2023-04-03T17:56:40.284Z,3.70
2023-04-03T18:00:38.648Z,4.10
2023-04-03T18:04:37.299Z,4.30
2023-04-03T18:08:37.404Z,4.20
2023-04-03T18:12:35.250Z,4.60
2023-04-03T18:16:33.348Z,4.10
2023-04-03T18:20:31.338Z,4.70
2023-04-03T18:24:33.486Z,4.40
2023-04-03T18:28:31.255Z,4.20
2023-04-03T18:32:32.300Z,4.40
2023-04-03T18:36:30.235Z,4.60
2023-04-03T18:40:28.246Z,4.00
2023-04-03T18:44:30.225Z,4.10
2023-04-03T18:48:30.060Z,4.40
2023-04-03T18:52:31.224Z,5.00
2023-04-03T18:56:29.240Z,4.40
2023-04-03T19:00:30.204Z,4.20
2023-04-03T19:04:29.316Z,3.80
2023-04-03T19:08:28.179Z,4.60
2023-04-03T19:12:26.315Z,4.20
2023-04-03T19:16:24.374Z,4.40
2023-04-03T19:20:24.299Z,4.50
2023-04-03T19:24:28.188Z,4.10
2023-04-03T19:28:26.547Z,5.10
2023-04-03T19:32:24.223Z,4.20
2023-04-03T19:36:23.234Z,4.50
2023-04-03T19:40:22.154Z,4.90
2023-04-03T19:44:21.169Z,4.50
2023-04-03T19:48:20.130Z,4.90
2023-04-03T19:52:18.518Z,5.00
2023-04-03T19:56:16.131Z,5.30
2023-04-03T20:00:14.282Z,4.70
2023-04-03T20:04:12.163Z,4.20
2023-04-03T20:08:11.190Z,5.20
2023-04-03T20:12:10.094Z,5.60
2023-04-03T20:16:08.298Z,5.00
2023-04-03T20:20:08.134Z,4.80
2023-04-03T20:24:06.193Z,4.70
2023-04-03T20:28:04.059Z,4.90
2023-04-03T20:32:02.186Z,4.80
2023-04-03T20:36:01.201Z,5.50
2023-04-03T20:39:59.125Z,4.70
2023-04-03T20:43:58.051Z,4.60
2023-04-03T20:47:56.199Z,4.80
2023-04-03T20:51:54.247Z,4.20
2023-04-03T20:55:55.092Z,4.80
2023-04-03T20:59:53.019Z,4.70
2023-04-03T21:03:53.128Z,5.30
2023-04-03T21:08:29.074Z,5.40
2023-04-03T21:13:05.029Z,5.10
2023-04-03T21:17:03.104Z,5.00
2023-04-03T21:21:02.111Z,5.30
2023-04-03T21:25:00.029Z,4.30
2023-04-03T21:28:58.164Z,4.60
2023-04-03T21:32:56.012Z,4.90
2023-04-03T21:36:58.070Z,6.00
2023-04-03T21:40:56.981Z,5.90
2023-04-03T21:44:55.004Z,6.70
2023-04-03T21:48:54.003Z,5.60
2023-04-03T21:52:52.083Z,5.60
2023-04-03T21:56:49.977Z,4.70
2023-04-03T22:00:49.131Z,6.20
2023-04-03T22:04:47.010Z,6.10
2023-04-03T22:08:44.942Z,5.10
2023-04-03T22:12:43.928Z,5.30
2023-04-03T22:16:42.926Z,5.20
2023-04-03T22:20:41.027Z,5.10
2023-04-03T22:24:38.908Z,5.50
2023-04-03T22:28:37.909Z,5.20
2023-04-03T22:32:35.897Z,4.50
2023-04-03T22:36:33.858Z,5.20
2023-04-03T22:40:31.888Z,5.60
2023-04-03T22:44:36.092Z,5.30
2023-04-03T22:48:34.942Z,4.80
2023-04-03T22:52:32.851Z,4.90
2023-04-03T22:56:31.020Z,4.70
2023-04-03T23:00:29.939Z,5.60
2023-04-03T23:04:28.006Z,5.10
2023-04-03T23:08:25.877Z,6.00
2023-04-03T23:12:23.977Z,5.20
2023-04-03T23:16:21.957Z,5.60
2023-04-03T23:20:20.938Z,5.60
2023-04-03T23:24:18.912Z,5.20
2023-04-03T23:28:16.881Z,6.00
2023-04-03T23:32:14.826Z,5.70
2023-04-03T23:36:12.868Z,6.10
2023-04-03T23:40:10.784Z,6.30
2023-04-03T23:44:08.758Z,7.00
2023-04-03T23:48:06.755Z,7.70
2023-04-03T23:52:04.803Z,8.90
2023-04-03T23:56:02.839Z,6.90
